Time;durP1;ratioP1;P1;durP2;ratioP2;P2;SDS_P1;SDS_P2;PMS_P1;PMS_P2;Temp;Humidity;BMP_temperature;BMP_pressure;BME280_temperature;BME280_humidity;BME280_pressure;Samples;Min_cycle;Max_cycle;Signal;HPM_P1;HPM_P2
2023/05/08 00:00:42;;;;;;;3.50;3.30;;;;;;;;;;4966472;28;20056;-83
2023/05/08 00:03:09;;;;;;;3.55;3.25;;;;;;;;;;4961269;28;20113;-81
2023/05/08 00:05:37;;;;;;;2.90;2.70;;;;;;;;;;4973369;28;20059;-83
2023/05/08 00:08:04;;;;;;;3.50;3.20;;;;;;;;;;5008719;28;20062;-82
2023/05/08 00:10:32;;;;;;;3.50;3.20;;;;;;;;;;4984039;28;20038;-83
2023/05/08 00:13:00;;;;;;;2.80;2.60;;;;;;;;;;4989359;28;20453;-83
2023/05/08 00:15:27;;;;;;;3.13;2.92;;;;;;;;;;4972163;28;20438;-83
2023/05/08 00:17:54;;;;;;;3.00;2.80;;;;;;;;;;4968701;28;20046;-83
2023/05/08 00:20:22;;;;;;;3.28;3.08;;;;;;;;;;4981535;28;20051;-83
2023/05/08 00:22:50;;;;;;;3.42;3.13;;;;;;;;;;4986917;28;20058;-83
2023/05/08 00:25:17;;;;;;;3.10;2.90;;;;;;;;;;4990321;28;20058;-83
2023/05/08 00:27:44;;;;;;;3.33;3.08;;;;;;;;;;4962837;28;20520;-83
2023/05/08 00:30:13;;;;;;;4.97;3.40;;;;;;;;;;4953958;28;20051;-84
2023/05/08 00:32:40;;;;;;;3.33;3.13;;;;;;;;;;4962447;28;20054;-83
2023/05/08 00:35:08;;;;;;;3.22;3.03;;;;;;;;;;4971092;28;20448;-83
2023/05/08 00:37:36;;;;;;;3.50;3.28;;;;;;;;;;4955315;28;20051;-83
2023/05/08 00:40:04;;;;;;;3.05;2.85;;;;;;;;;;4965907;28;20066;-83
2023/05/08 00:42:31;;;;;;;2.95;2.75;;;;;;;;;;4954447;28;20085;-83
2023/05/08 00:44:59;;;;;;;3.08;2.88;;;;;;;;;;4981351;28;20644;-83
2023/05/08 00:47:27;;;;;;;3.63;3.15;;;;;;;;;;4967861;28;20054;-84
2023/05/08 00:49:55;;;;;;;3.17;2.97;;;;;;;;;;4967144;28;20050;-83
2023/05/08 00:52:23;;;;;;;3.00;2.80;;;;;;;;;;4956779;28;20057;-83
2023/05/08 00:54:50;;;;;;;3.15;2.92;;;;;;;;;;4983808;28;20066;-83
2023/05/08 00:57:18;;;;;;;3.13;2.92;;;;;;;;;;4959055;28;20073;-81
2023/05/08 00:59:46;;;;;;;3.13;2.80;;;;;;;;;;4966703;28;20166;-81
2023/05/08 01:02:14;;;;;;;3.17;2.95;;;;;;;;;;4984533;28;20150;-81
2023/05/08 01:04:43;;;;;;;3.08;2.90;;;;;;;;;;4972137;28;20043;-80
2023/05/08 01:07:11;;;;;;;3.60;3.40;;;;;;;;;;4978469;28;20061;-80
2023/05/08 01:09:39;;;;;;;3.17;2.97;;;;;;;;;;4973375;28;20085;-80
2023/05/08 01:12:09;;;;;;;3.63;3.33;;;;;;;;;;4961303;28;20162;-81
2023/05/08 01:14:40;;;;;;;3.70;3.35;;;;;;;;;;4969884;28;20042;-81
2023/05/08 01:17:20;;;;;;;3.38;3.17;;;;;;;;;;4958308;28;20244;-81
2023/05/08 01:20:03;;;;;;;3.80;3.50;;;;;;;;;;4943681;28;20054;-81
2023/05/08 01:22:49;;;;;;;3.85;3.55;;;;;;;;;;4960495;28;20042;-80
2023/05/08 01:25:36;;;;;;;3.60;3.40;;;;;;;;;;4972811;28;20114;-80
2023/05/08 01:28:30;;;;;;;8.57;3.80;;;;;;;;;;4992515;28;20031;-80
2023/05/08 01:31:17;;;;;;;3.78;3.55;;;;;;;;;;4973867;28;20053;-81
2023/05/08 01:33:44;;;;;;;3.30;3.10;;;;;;;;;;4983227;28;20104;-81
2023/05/08 01:36:18;;;;;;;4.00;3.78;;;;;;;;;;4979364;28;20077;-80
2023/05/08 01:38:48;;;;;;;3.75;3.50;;;;;;;;;;4985076;28;20059;-80
2023/05/08 01:41:16;;;;;;;3.50;3.20;;;;;;;;;;4960565;28;20042;-80
2023/05/08 01:43:55;;;;;;;3.67;3.35;;;;;;;;;;4984908;28;20047;-80
2023/05/08 01:46:24;;;;;;;4.20;3.90;;;;;;;;;;4987121;28;20528;-80
2023/05/08 01:48:59;;;;;;;3.85;3.55;;;;;;;;;;4962708;28;20047;-80
2023/05/08 01:51:28;;;;;;;3.92;3.63;;;;;;;;;;4962611;28;20125;-80
2023/05/08 01:53:57;;;;;;;3.80;3.50;;;;;;;;;;4975685;28;20049;-81
2023/05/08 01:56:26;;;;;;;3.70;3.40;;;;;;;;;;4976847;28;20051;-81
2023/05/08 01:58:54;;;;;;;3.95;3.65;;;;;;;;;;4971727;28;20113;-80
2023/05/08 02:01:24;;;;;;;3.70;3.40;;;;;;;;;;4969016;28;20054;-80
2023/05/08 02:03:53;;;;;;;4.40;4.10;;;;;;;;;;4956010;28;20056;-80
2023/05/08 02:06:22;;;;;;;4.40;4.10;;;;;;;;;;4961927;28;20042;-80
2023/05/08 02:08:50;;;;;;;4.72;4.28;;;;;;;;;;4976191;28;20051;-81
2023/05/08 02:11:17;;;;;;;4.15;3.85;;;;;;;;;;4970754;28;20046;-80
2023/05/08 02:13:46;;;;;;;4.07;3.75;;;;;;;;;;4984882;28;20471;-80
2023/05/08 02:16:14;;;;;;;3.25;3.05;;;;;;;;;;4974726;28;20074;-81
2023/05/08 02:18:44;;;;;;;3.25;2.95;;;;;;;;;;4959658;28;20049;-81
2023/05/08 02:21:12;;;;;;;3.67;3.38;;;;;;;;;;4953448;28;20051;-80
2023/05/08 02:23:40;;;;;;;4.72;3.45;;;;;;;;;;4971188;28;20402;-80
2023/05/08 02:26:09;;;;;;;3.45;3.25;;;;;;;;;;4995404;28;20042;-80
2023/05/08 02:28:36;;;;;;;3.92;3.53;;;;;;;;;;4968304;28;20627;-80
2023/05/08 02:31:05;;;;;;;3.75;3.47;;;;;;;;;;4960009;28;20046;-80
2023/05/08 02:33:33;;;;;;;3.60;3.40;;;;;;;;;;4975279;28;20189;-80
2023/05/08 02:36:02;;;;;;;3.65;3.35;;;;;;;;;;4973555;28;20049;-81
2023/05/08 02:38:29;;;;;;;3.35;3.15;;;;;;;;;;4969912;28;20057;-80
2023/05/08 02:41:00;;;;;;;3.10;2.90;;;;;;;;;;4982991;28;20121;-80
2023/05/08 02:43:28;;;;;;;5.43;3.28;;;;;;;;;;4962732;28;20567;-80
2023/05/08 02:45:55;;;;;;;3.63;3.33;;;;;;;;;;4981999;28;20047;-80
2023/05/08 02:48:32;;;;;;;4.00;3.35;;;;;;;;;;4964775;28;20126;-81
2023/05/08 02:51:05;;;;;;;3.40;3.10;;;;;;;;;;4959980;28;20582;-81
2023/05/08 02:53:35;;;;;;;4.50;3.53;;;;;;;;;;4978640;28;20046;-81
2023/05/08 02:56:08;;;;;;;3.42;3.13;;;;;;;;;;4988890;28;20070;-81
2023/05/08 02:58:54;;;;;;;3.40;3.10;;;;;;;;;;4971882;28;20073;-80
2023/05/08 03:01:36;;;;;;;3.42;3.13;;;;;;;;;;4977827;28;20074;-80
2023/05/08 03:04:19;;;;;;;3.30;3.00;;;;;;;;;;4971355;28;20042;-80
2023/05/08 03:06:47;;;;;;;3.00;2.80;;;;;;;;;;4963510;28;20119;-80
2023/05/08 03:09:18;;;;;;;3.05;2.85;;;;;;;;;;4976866;28;20053;-81
2023/05/08 03:11:47;;;;;;;5.05;3.35;;;;;;;;;;4969619;28;20515;-80
2023/05/08 03:14:18;;;;;;;2.88;2.67;;;;;;;;;;4970558;28;20050;-81
2023/05/08 03:16:47;;;;;;;3.40;3.20;;;;;;;;;;4976572;28;20061;-80
2023/05/08 03:19:16;;;;;;;3.65;3.35;;;;;;;;;;4966071;28;20066;-80
2023/05/08 03:21:45;;;;;;;3.28;3.08;;;;;;;;;;4971995;28;20125;-79
2023/05/08 03:24:15;;;;;;;3.00;2.80;;;;;;;;;;4977339;28;20073;-81
2023/05/08 03:26:43;;;;;;;3.10;2.80;;;;;;;;;;4977156;28;20042;-80
2023/05/08 03:29:12;;;;;;;3.45;3.00;;;;;;;;;;4981211;28;20038;-81
2023/05/08 03:31:41;;;;;;;3.30;3.10;;;;;;;;;;4964614;28;20424;-80
2023/05/08 03:34:09;;;;;;;2.88;2.67;;;;;;;;;;4965265;28;20050;-81
2023/05/08 03:36:37;;;;;;;2.75;2.55;;;;;;;;;;4965088;28;20114;-80
2023/05/08 03:39:05;;;;;;;3.10;2.90;;;;;;;;;;4962468;28;20149;-82
2023/05/08 03:41:33;;;;;;;2.83;2.63;;;;;;;;;;4957692;28;20057;-80
2023/05/08 03:44:02;;;;;;;3.67;2.83;;;;;;;;;;4987703;28;20058;-81
2023/05/08 03:46:34;;;;;;;3.30;3.10;;;;;;;;;;4974673;28;20059;-81
2023/05/08 03:49:03;;;;;;;3.90;3.60;;;;;;;;;;4971932;28;20056;-81
2023/05/08 03:51:31;;;;;;;3.63;3.33;;;;;;;;;;4969445;28;20058;-81
2023/05/08 03:53:59;;;;;;;3.20;2.97;;;;;;;;;;5000185;28;20050;-81
2023/05/08 03:56:27;;;;;;;3.70;3.00;;;;;;;;;;4979916;28;20047;-80
2023/05/08 03:59:01;;;;;;;3.65;2.92;;;;;;;;;;4975898;28;20093;-80
2023/05/08 04:01:34;;;;;;;3.13;2.83;;;;;;;;;;4979340;28;20042;-80
2023/05/08 04:04:18;;;;;;;3.60;3.30;;;;;;;;;;4969970;28;20552;-80
2023/05/08 04:06:50;;;;;;;3.17;2.97;;;;;;;;;;4978373;28;20059;-81
2023/05/08 04:09:31;;;;;;;2.70;2.50;;;;;;;;;;4983020;28;20078;-80
2023/05/08 04:12:25;;;;;;;4.18;2.83;;;;;;;;;;4980296;28;20051;-81
2023/05/08 04:15:16;;;;;;;3.20;3.00;;;;;;;;;;4964310;28;20046;-80
2023/05/08 04:17:49;;;;;;;3.40;2.90;;;;;;;;;;5011259;28;20157;-82
2023/05/08 04:20:26;;;;;;;3.40;3.20;;;;;;;;;;5020602;28;20128;-80
2023/05/08 04:23:08;;;;;;;4.40;3.70;;;;;;;;;;5017153;28;20096;-80
2023/05/08 04:25:37;;;;;;;3.72;3.50;;;;;;;;;;5004962;28;20061;-81
2023/05/08 04:31:09;;;;;;;4.88;4.25;;;;;;;;;;5018498;28;20055;-81
2023/05/08 04:33:37;;;;;;;4.05;3.72;;;;;;;;;;5014669;28;20096;-81
2023/05/08 04:36:11;;;;;;;4.03;3.72;;;;;;;;;;5013165;28;20045;-81
2023/05/08 04:38:40;;;;;;;6.22;4.88;;;;;;;;;;5013532;28;20075;-81
2023/05/08 04:41:10;;;;;;;4.25;3.90;;;;;;;;;;5014030;28;20049;-81
2023/05/08 04:43:38;;;;;;;4.05;3.75;;;;;;;;;;5007878;28;20061;-83
2023/05/08 04:46:06;;;;;;;4.40;4.00;;;;;;;;;;5011317;28;20253;-82
2023/05/08 04:48:34;;;;;;;4.65;4.00;;;;;;;;;;5043022;28;20041;-84
2023/05/08 04:51:02;;;;;;;6.00;5.50;;;;;;;;;;5016215;28;20053;-84
2023/05/08 04:53:29;;;;;;;5.20;4.78;;;;;;;;;;5005858;28;20149;-83
2023/05/08 04:55:58;;;;;;;4.90;3.80;;;;;;;;;;5025027;28;20045;-84
2023/05/08 04:58:27;;;;;;;4.10;3.80;;;;;;;;;;5008266;28;20072;-84
2023/05/08 05:00:55;;;;;;;5.45;4.57;;;;;;;;;;5013770;28;20096;-84
2023/05/08 05:03:22;;;;;;;4.97;4.47;;;;;;;;;;5002172;28;20113;-85
2023/05/08 05:05:56;;;;;;;4.80;4.40;;;;;;;;;;5024631;28;20049;-81
2023/05/08 05:08:26;;;;;;;5.22;4.80;;;;;;;;;;5006317;28;20463;-80
2023/05/08 05:10:55;;;;;;;5.10;4.68;;;;;;;;;;5012550;28;20045;-80
2023/05/08 05:13:23;;;;;;;5.30;4.80;;;;;;;;;;5017930;28;20043;-81
2023/05/08 05:15:53;;;;;;;4.80;4.40;;;;;;;;;;5016489;28;20037;-82
2023/05/08 05:18:21;;;;;;;5.85;5.25;;;;;;;;;;5011742;28;20435;-81
2023/05/08 05:20:51;;;;;;;4.53;4.22;;;;;;;;;;5012400;28;20046;-82
2023/05/08 05:23:19;;;;;;;4.80;4.40;;;;;;;;;;5008174;28;20041;-81
2023/05/08 05:25:46;;;;;;;4.20;3.90;;;;;;;;;;5026698;28;20045;-81
2023/05/08 05:28:14;;;;;;;4.63;4.28;;;;;;;;;;5022317;28;20126;-81
2023/05/08 05:30:42;;;;;;;4.78;4.10;;;;;;;;;;5014623;28;20060;-81
2023/05/08 05:33:09;;;;;;;4.70;4.30;;;;;;;;;;5018461;28;20041;-82
2023/05/08 05:35:37;;;;;;;5.20;4.80;;;;;;;;;;5018133;28;20049;-81
2023/05/08 05:38:04;;;;;;;5.55;5.05;;;;;;;;;;5017254;28;20797;-83
2023/05/08 05:40:33;;;;;;;4.93;4.35;;;;;;;;;;5017298;28;20053;-81
2023/05/08 05:43:00;;;;;;;4.95;4.55;;;;;;;;;;5017507;28;20045;-82
2023/05/08 05:45:28;;;;;;;4.95;4.55;;;;;;;;;;5021658;28;20136;-81
2023/05/08 05:47:58;;;;;;;4.35;4.05;;;;;;;;;;5018930;28;20132;-81
2023/05/08 05:50:27;;;;;;;4.18;3.88;;;;;;;;;;5017180;28;20068;-82
2023/05/08 05:52:56;;;;;;;4.18;3.78;;;;;;;;;;5008575;28;20044;-81
2023/05/08 05:55:25;;;;;;;5.60;4.07;;;;;;;;;;5013704;28;20046;-81
2023/05/08 05:57:53;;;;;;;3.78;3.47;;;;;;;;;;5012476;28;20046;-80
2023/05/08 06:00:21;;;;;;;4.10;3.80;;;;;;;;;;5011695;28;20052;-81
2023/05/08 06:02:53;;;;;;;3.90;3.60;;;;;;;;;;5010890;28;20049;-81
2023/05/08 06:05:25;;;;;;;3.88;3.60;;;;;;;;;;5035945;28;20045;-81
2023/05/08 06:07:53;;;;;;;3.90;3.60;;;;;;;;;;5039137;28;20108;-81
2023/05/08 06:10:20;;;;;;;3.53;3.25;;;;;;;;;;5017782;28;20048;-80
2023/05/08 06:12:48;;;;;;;3.80;3.50;;;;;;;;;;5009650;28;20041;-81
2023/05/08 06:15:15;;;;;;;4.20;3.80;;;;;;;;;;4995362;28;20061;-81
2023/05/08 06:17:45;;;;;;;4.32;4.03;;;;;;;;;;5014000;28;20073;-82
2023/05/08 06:20:12;;;;;;;3.90;3.60;;;;;;;;;;5011464;28;20064;-81
2023/05/08 06:22:41;;;;;;;3.60;3.40;;;;;;;;;;5028916;28;20053;-82
2023/05/08 06:25:09;;;;;;;3.70;3.42;;;;;;;;;;5026971;28;20545;-81
2023/05/08 06:27:38;;;;;;;4.47;4.07;;;;;;;;;;5026002;28;20050;-82
2023/05/08 06:30:09;;;;;;;;;;;;;;;;;;5025629;28;20407;-81
2023/05/08 06:32:37;;;;;;;4.22;3.92;;;;;;;;;;5030569;28;20023;-80
2023/05/08 06:35:05;;;;;;;3.58;3.15;;;;;;;;;;5029234;28;20053;-81
2023/05/08 06:37:32;;;;;;;4.10;3.80;;;;;;;;;;5032067;28;20045;-81
2023/05/08 06:40:00;;;;;;;3.85;3.55;;;;;;;;;;5013690;28;20053;-82
2023/05/08 06:42:39;;;;;;;3.55;3.30;;;;;;;;;;5032228;28;20085;-82
2023/05/08 06:45:07;;;;;;;4.03;3.70;;;;;;;;;;5012955;28;20080;-81
2023/05/08 06:47:35;;;;;;;3.97;3.67;;;;;;;;;;5043344;28;20075;-81
2023/05/08 06:50:03;;;;;;;3.63;3.42;;;;;;;;;;5033637;28;20136;-81
2023/05/08 06:52:30;;;;;;;4.82;4.25;;;;;;;;;;5031515;28;20470;-81
2023/05/08 06:54:58;;;;;;;3.85;3.55;;;;;;;;;;5030600;28;20113;-81
2023/05/08 06:57:26;;;;;;;3.97;3.67;;;;;;;;;;5014260;28;20552;-83
2023/05/08 06:59:54;;;;;;;3.90;3.55;;;;;;;;;;5029846;28;20045;-81
2023/05/08 07:02:21;;;;;;;3.25;2.95;;;;;;;;;;5033206;28;20068;-81
2023/05/08 07:04:49;;;;;;;3.10;2.90;;;;;;;;;;5015668;28;20049;-81
2023/05/08 07:07:16;;;;;;;3.25;3.05;;;;;;;;;;5020154;28;20053;-82
2023/05/08 07:09:44;;;;;;;3.00;2.80;;;;;;;;;;5034899;28;20053;-82
2023/05/08 07:12:11;;;;;;;2.92;2.72;;;;;;;;;;5038256;28;20053;-84
2023/05/08 07:14:39;;;;;;;3.70;3.40;;;;;;;;;;5013950;28;20049;-82
2023/05/08 07:17:06;;;;;;;3.70;3.40;;;;;;;;;;5034658;28;20045;-80
2023/05/08 07:19:37;;;;;;;3.60;3.30;;;;;;;;;;5010147;28;20488;-82
2023/05/08 07:22:05;;;;;;;4.50;3.45;;;;;;;;;;5028883;28;20045;-81
2023/05/08 07:24:33;;;;;;;3.50;3.20;;;;;;;;;;5028655;28;20443;-82
2023/05/08 07:27:00;;;;;;;2.85;2.65;;;;;;;;;;5040803;28;20049;-82
2023/05/08 07:29:28;;;;;;;2.85;2.70;;;;;;;;;;5038974;28;20712;-81
2023/05/08 07:31:55;;;;;;;2.70;2.60;;;;;;;;;;5038086;28;20033;-82
2023/05/08 07:34:23;;;;;;;2.78;2.58;;;;;;;;;;5036832;28;20065;-82
2023/05/08 07:36:50;;;;;;;2.90;2.70;;;;;;;;;;5030670;28;20045;-82
2023/05/08 07:39:18;;;;;;;3.20;3.00;;;;;;;;;;5024807;28;20415;-82
2023/05/08 07:41:46;;;;;;;3.08;2.88;;;;;;;;;;5031268;28;20073;-83
2023/05/08 07:44:16;;;;;;;3.10;2.80;;;;;;;;;;5009063;28;20068;-81
2023/05/08 07:46:44;;;;;;;2.95;2.75;;;;;;;;;;5006569;28;20073;-81
2023/05/08 07:49:12;;;;;;;2.50;2.30;;;;;;;;;;5024301;28;20057;-82
2023/05/08 07:51:40;;;;;;;2.90;2.70;;;;;;;;;;5027519;28;20124;-83
2023/05/08 07:54:11;;;;;;;3.13;2.92;;;;;;;;;;5031737;28;20041;-81
2023/05/08 07:56:38;;;;;;;2.55;2.40;;;;;;;;;;5017611;28;20045;-81
2023/05/08 07:59:06;;;;;;;2.90;2.70;;;;;;;;;;5029938;28;20064;-81
2023/05/08 08:01:33;;;;;;;3.38;3.13;;;;;;;;;;5024705;28;20100;-81
2023/05/08 08:04:01;;;;;;;3.42;3.22;;;;;;;;;;5012741;28;20052;-82
2023/05/08 08:06:29;;;;;;;3.10;2.90;;;;;;;;;;5035879;28;20053;-81
2023/05/08 08:08:57;;;;;;;3.70;3.40;;;;;;;;;;5016896;28;20114;-81
2023/05/08 08:11:24;;;;;;;3.00;2.80;;;;;;;;;;5030947;28;20773;-82
2023/05/08 08:13:56;;;;;;;3.15;2.85;;;;;;;;;;5016929;28;20077;-81
2023/05/08 08:16:24;;;;;;;3.20;3.00;;;;;;;;;;5038285;28;20045;-82
2023/05/08 08:18:52;;;;;;;3.15;2.80;;;;;;;;;;5020088;28;20037;-81
2023/05/08 08:21:19;;;;;;;2.58;2.45;;;;;;;;;;5020060;28;20053;-82
2023/05/08 08:23:47;;;;;;;3.10;2.90;;;;;;;;;;5008293;28;20081;-81
2023/05/08 08:26:15;;;;;;;3.20;2.90;;;;;;;;;;5033857;28;20526;-81
2023/05/08 08:28:42;;;;;;;2.67;2.47;;;;;;;;;;5019999;28;20053;-82
2023/05/08 08:31:10;;;;;;;2.08;1.98;;;;;;;;;;5021742;28;20412;-82
2023/05/08 08:33:37;;;;;;;2.30;2.20;;;;;;;;;;5036350;28;20052;-84
2023/05/08 08:36:05;;;;;;;2.17;2.08;;;;;;;;;;5035875;28;20045;-82
2023/05/08 08:38:32;;;;;;;2.47;2.28;;;;;;;;;;5035679;28;20173;-81
2023/05/08 08:41:01;;;;;;;3.40;3.05;;;;;;;;;;5032903;28;20054;-82
2023/05/08 08:43:29;;;;;;;3.65;3.35;;;;;;;;;;5018394;28;20049;-81
2023/05/08 08:45:58;;;;;;;3.28;3.00;;;;;;;;;;5021339;28;20053;-82
2023/05/08 08:48:27;;;;;;;3.22;3.03;;;;;;;;;;5056583;28;20080;-82
2023/05/08 08:50:58;;;;;;;2.83;2.63;;;;;;;;;;5045778;28;20090;-81
2023/05/08 08:53:26;;;;;;;3.20;3.00;;;;;;;;;;5040613;28;20041;-83
2023/05/08 08:55:55;;;;;;;2.70;2.50;;;;;;;;;;5018584;28;20050;-82
2023/05/08 08:58:23;;;;;;;2.30;2.20;;;;;;;;;;5035294;28;20077;-82
2023/05/08 09:00:51;;;;;;;2.20;2.10;;;;;;;;;;5033508;28;20053;-81
2023/05/08 09:03:19;;;;;;;1.77;1.67;;;;;;;;;;5035725;28;20056;-82
2023/05/08 09:05:48;;;;;;;2.60;2.40;;;;;;;;;;5034408;28;20041;-81
2023/05/08 09:08:17;;;;;;;2.92;2.70;;;;;;;;;;5062234;23;20048;-85
2023/05/08 09:10:45;;;;;;;2.38;2.28;;;;;;;;;;5029079;28;20494;-84
2023/05/08 09:13:17;;;;;;;2.97;2.78;;;;;;;;;;5028424;28;20490;-83
2023/05/08 09:15:47;;;;;;;3.10;2.90;;;;;;;;;;5049682;28;20033;-85
2023/05/08 09:18:18;;;;;;;;;;;;;;;;;;5048927;28;20049;-83
2023/05/08 09:20:46;;;;;;;2.78;2.58;;;;;;;;;;5047977;28;20410;-84
2023/05/08 09:23:16;;;;;;;2.38;2.22;;;;;;;;;;5049746;28;20036;-85
2023/05/08 09:25:44;;;;;;;2.20;2.10;;;;;;;;;;5048155;28;20053;-84
2023/05/08 09:28:17;;;;;;;2.25;2.10;;;;;;;;;;5048805;28;20049;-86
2023/05/08 09:30:50;;;;;;;2.58;2.38;;;;;;;;;;5048768;28;20043;-86
2023/05/08 09:33:17;;;;;;;2.58;2.38;;;;;;;;;;5049518;28;20037;-84
2023/05/08 09:35:47;;;;;;;2.17;2.08;;;;;;;;;;5048884;28;20044;-85
2023/05/08 09:38:38;;;;;;;2.30;2.10;;;;;;;;;;5048256;28;20415;-84
2023/05/08 09:41:13;;;;;;;2.03;1.92;;;;;;;;;;5049515;28;20048;-83
2023/05/08 09:43:41;;;;;;;2.00;1.90;;;;;;;;;;5049586;28;20060;-84
2023/05/08 09:46:22;;;;;;;2.28;2.08;;;;;;;;;;5049692;28;20079;-83
2023/05/08 09:48:50;;;;;;;2.00;1.90;;;;;;;;;;5031782;28;20052;-85
2023/05/08 09:51:18;;;;;;;2.50;2.30;;;;;;;;;;5049077;28;20049;-83
2023/05/08 09:53:46;;;;;;;2.17;2.08;;;;;;;;;;5049165;28;22357;-84
2023/05/08 09:56:13;;;;;;;2.03;1.67;;;;;;;;;;5030846;28;20131;-83
2023/05/08 09:58:44;;;;;;;2.35;2.25;;;;;;;;;;5048750;28;20044;-83
2023/05/08 10:01:27;;;;;;;2.22;2.13;;;;;;;;;;5048895;28;20055;-84
2023/05/08 10:03:55;;;;;;;2.72;2.53;;;;;;;;;;5031490;28;20044;-84
2023/05/08 10:06:23;;;;;;;2.20;2.10;;;;;;;;;;5049929;28;20049;-83
2023/05/08 10:09:13;;;;;;;2.00;1.90;;;;;;;;;;5048092;28;20399;-83
2023/05/08 10:11:54;;;;;;;1.90;1.80;;;;;;;;;;5039804;28;20072;-84
2023/05/08 10:14:22;;;;;;;2.23;2.13;;;;;;;;;;5050474;28;20045;-86
2023/05/08 10:16:54;;;;;;;2.20;2.10;;;;;;;;;;5050104;28;20072;-84
2023/05/08 10:19:30;;;;;;;2.28;2.10;;;;;;;;;;5031563;28;20120;-82
2023/05/08 10:21:58;;;;;;;2.10;2.00;;;;;;;;;;5043578;28;20507;-83
2023/05/08 10:24:29;;;;;;;2.60;2.10;;;;;;;;;;5050168;28;20049;-84
2023/05/08 10:27:15;;;;;;;1.85;1.75;;;;;;;;;;5050542;28;20045;-83
2023/05/08 10:29:49;;;;;;;2.30;2.20;;;;;;;;;;5048260;28;20053;-84
2023/05/08 10:32:19;;;;;;;2.00;1.90;;;;;;;;;;5051067;28;20055;-83
2023/05/08 10:34:49;;;;;;;2.10;2.00;;;;;;;;;;5045515;28;20128;-84
2023/05/08 10:37:16;;;;;;;2.90;2.70;;;;;;;;;;5043490;28;20047;-83
2023/05/08 10:39:44;;;;;;;2.65;2.45;;;;;;;;;;5045870;28;20066;-80
2023/05/08 10:42:14;;;;;;;2.63;2.42;;;;;;;;;;5040247;28;20056;-82
2023/05/08 10:44:41;;;;;;;2.28;2.08;;;;;;;;;;5037796;28;20041;-82
2023/05/08 10:47:22;;;;;;;2.10;2.00;;;;;;;;;;5042378;28;20107;-84
2023/05/08 10:50:08;;;;;;;1.83;1.73;;;;;;;;;;5043980;28;20068;-83
2023/05/08 10:52:39;;;;;;;1.52;1.52;;;;;;;;;;5056319;28;20109;-83
2023/05/08 10:55:16;;;;;;;2.00;1.90;;;;;;;;;;5064247;28;20045;-83
2023/05/08 10:58:02;;;;;;;2.30;2.20;;;;;;;;;;5061321;28;20283;-82
2023/05/08 11:00:52;;;;;;;1.90;1.80;;;;;;;;;;5069407;28;20066;-81
2023/05/08 11:03:22;;;;;;;1.95;1.80;;;;;;;;;;5061312;28;20047;-79
2023/05/08 11:06:00;;;;;;;2.22;2.08;;;;;;;;;;5034603;28;20057;-83
2023/05/08 11:08:29;;;;;;;2.47;2.38;;;;;;;;;;5041119;28;20041;-81
2023/05/08 11:10:59;;;;;;;2.20;2.10;;;;;;;;;;5061003;28;20049;-84
2023/05/08 11:13:34;;;;;;;2.00;1.90;;;;;;;;;;5055612;28;20123;-83
2023/05/08 11:16:09;;;;;;;2.35;2.15;;;;;;;;;;5047764;28;20124;-81
2023/05/08 11:18:37;;;;;;;2.08;1.98;;;;;;;;;;5048370;28;20045;-82
2023/05/08 11:21:22;;;;;;;1.70;1.60;;;;;;;;;;5043701;28;20052;-86
2023/05/08 11:23:57;;;;;;;1.85;1.75;;;;;;;;;;5043106;28;20135;-86
2023/05/08 11:26:39;;;;;;;2.22;2.10;;;;;;;;;;5037536;28;20433;-82
2023/05/08 11:29:16;;;;;;;2.20;2.10;;;;;;;;;;5044175;28;20374;-83
2023/05/08 11:31:50;;;;;;;1.60;1.60;;;;;;;;;;5040632;28;20064;-84
2023/05/08 11:34:36;;;;;;;1.77;1.67;;;;;;;;;;5050255;28;20049;-85
2023/05/08 11:37:08;;;;;;;1.38;1.38;;;;;;;;;;5030583;28;20041;-81
2023/05/08 11:39:35;;;;;;;1.50;1.50;;;;;;;;;;5029228;28;20040;-83
2023/05/08 11:42:21;;;;;;;1.65;1.58;;;;;;;;;;5050068;28;20057;-80
2023/05/08 11:44:49;;;;;;;1.55;1.45;;;;;;;;;;5036083;28;20111;-83
2023/05/08 11:47:18;;;;;;;1.20;1.20;;;;;;;;;;5028033;28;20043;-82
2023/05/08 11:49:45;;;;;;;1.30;1.30;;;;;;;;;;5042412;28;20045;-85
2023/05/08 11:52:17;;;;;;;1.50;1.40;;;;;;;;;;5044273;28;20043;-85
2023/05/08 11:54:45;;;;;;;1.17;1.17;;;;;;;;;;5047505;28;20057;-86
2023/05/08 11:57:16;;;;;;;0.90;0.90;;;;;;;;;;5045503;28;20033;-86
2023/05/08 11:59:44;;;;;;;1.83;1.20;;;;;;;;;;5048337;28;20048;-81
2023/05/08 12:02:14;;;;;;;1.13;1.13;;;;;;;;;;5042972;28;20127;-85
2023/05/08 12:04:47;;;;;;;1.90;1.80;;;;;;;;;;5049847;28;20048;-85
2023/05/08 12:07:15;;;;;;;1.48;1.38;;;;;;;;;;5052003;28;20045;-86
2023/05/08 12:09:43;;;;;;;1.30;1.30;;;;;;;;;;5030619;28;20037;-85
2023/05/08 12:12:10;;;;;;;1.00;1.00;;;;;;;;;;5050820;28;20068;-86
2023/05/08 12:14:37;;;;;;;2.00;1.90;;;;;;;;;;5045300;28;20052;-85
2023/05/08 12:17:05;;;;;;;2.40;2.30;;;;;;;;;;5049664;28;20119;-84
2023/05/08 12:19:32;;;;;;;1.75;1.65;;;;;;;;;;5049741;28;20101;-84
2023/05/08 12:22:00;;;;;;;1.90;1.80;;;;;;;;;;5030446;28;20049;-87
2023/05/08 12:24:27;;;;;;;1.80;1.70;;;;;;;;;;5051792;28;20286;-85
2023/05/08 12:26:55;;;;;;;1.77;1.67;;;;;;;;;;5052005;28;20490;-87
2023/05/08 12:29:22;;;;;;;1.10;1.10;;;;;;;;;;5051986;28;20060;-84
2023/05/08 12:31:51;;;;;;;1.10;1.10;;;;;;;;;;5051620;28;20052;-84
2023/05/08 12:34:21;;;;;;;1.45;1.40;;;;;;;;;;5052252;28;20514;-83
2023/05/08 12:36:50;;;;;;;1.80;1.70;;;;;;;;;;5052280;28;20486;-84
2023/05/08 12:39:18;;;;;;;2.35;2.25;;;;;;;;;;5053259;28;20041;-84
2023/05/08 12:41:49;;;;;;;1.20;1.20;;;;;;;;;;5066663;28;20057;-83
2023/05/08 12:44:22;;;;;;;1.42;1.42;;;;;;;;;;5072449;28;20049;-81
2023/05/08 12:46:50;;;;;;;1.55;1.50;;;;;;;;;;5072860;28;20053;-82
2023/05/08 12:49:25;;;;;;;2.40;2.30;;;;;;;;;;5057185;28;20107;-85
2023/05/08 12:51:59;;;;;;;1.95;1.85;;;;;;;;;;5050923;28;20076;-83
2023/05/08 12:54:37;;;;;;;1.98;1.88;;;;;;;;;;5051966;28;20055;-86
2023/05/08 12:57:16;;;;;;;3.88;2.67;;;;;;;;;;5051560;28;20248;-85
2023/05/08 12:59:44;;;;;;;2.00;1.90;;;;;;;;;;5050746;28;20052;-86
2023/05/08 13:02:20;;;;;;;3.63;2.45;;;;;;;;;;5050694;28;20056;-84
2023/05/08 13:04:48;;;;;;;2.50;2.40;;;;;;;;;;5050137;28;20071;-86
2023/05/08 13:07:15;;;;;;;2.33;2.22;;;;;;;;;;5051494;28;20132;-82
2023/05/08 13:09:56;;;;;;;1.88;1.85;;;;;;;;;;5050962;28;20058;-85
2023/05/08 13:12:23;;;;;;;2.00;1.90;;;;;;;;;;5051629;28;20040;-85
2023/05/08 13:14:50;;;;;;;1.90;1.80;;;;;;;;;;5050584;28;20495;-85
2023/05/08 13:17:18;;;;;;;1.75;1.65;;;;;;;;;;5051655;28;20422;-83
2023/05/08 13:19:45;;;;;;;1.73;1.63;;;;;;;;;;5050667;28;20044;-85
2023/05/08 13:22:13;;;;;;;1.88;1.80;;;;;;;;;;5048168;28;20265;-85
2023/05/08 13:24:40;;;;;;;1.50;1.50;;;;;;;;;;5049844;28;20073;-83
2023/05/08 13:27:08;;;;;;;1.67;1.50;;;;;;;;;;5050470;28;20041;-86
2023/05/08 13:29:36;;;;;;;1.67;1.60;;;;;;;;;;5050464;28;20049;-84
2023/05/08 13:32:03;;;;;;;1.80;1.70;;;;;;;;;;5050385;28;20048;-85
2023/05/08 13:34:31;;;;;;;1.90;1.80;;;;;;;;;;5050145;28;20049;-84
2023/05/08 13:36:58;;;;;;;1.35;1.27;;;;;;;;;;5050016;28;20529;-85
2023/05/08 13:39:25;;;;;;;0.90;0.90;;;;;;;;;;5032996;28;20124;-85
2023/05/08 13:41:53;;;;;;;1.05;1.05;;;;;;;;;;5049299;28;20089;-83
2023/05/08 13:44:20;;;;;;;0.90;0.90;;;;;;;;;;5050155;28;20106;-86
2023/05/08 13:46:48;;;;;;;0.88;0.88;;;;;;;;;;5032149;28;20111;-85
2023/05/08 13:49:18;;;;;;;0.80;0.80;;;;;;;;;;5048021;28;20051;-83
2023/05/08 13:51:45;;;;;;;1.20;1.10;;;;;;;;;;5047430;28;20049;-83
2023/05/08 13:54:18;;;;;;;0.80;0.80;;;;;;;;;;5049600;28;20526;-83
2023/05/08 13:56:47;;;;;;;0.70;0.70;;;;;;;;;;5049858;28;20213;-85
2023/05/08 13:59:14;;;;;;;0.80;0.80;;;;;;;;;;5030387;28;20041;-85
2023/05/08 14:01:50;;;;;;;0.95;0.90;;;;;;;;;;5030970;28;20045;-84
2023/05/08 14:04:18;;;;;;;0.90;0.90;;;;;;;;;;5049692;28;20063;-83
2023/05/08 14:06:55;;;;;;;0.90;0.90;;;;;;;;;;5059022;28;20083;-86
2023/05/08 14:09:37;;;;;;;0.80;0.80;;;;;;;;;;5052812;28;20064;-84
2023/05/08 14:12:04;;;;;;;0.82;0.82;;;;;;;;;;5053064;28;20040;-85
2023/05/08 14:14:32;;;;;;;1.27;1.27;;;;;;;;;;5049610;28;20051;-84
2023/05/08 14:17:03;;;;;;;0.90;0.90;;;;;;;;;;5031657;28;20131;-84
2023/05/08 14:19:31;;;;;;;0.90;0.90;;;;;;;;;;5049535;28;20274;-83
2023/05/08 14:22:01;;;;;;;1.55;0.90;;;;;;;;;;5050508;28;20117;-86
2023/05/08 14:24:28;;;;;;;1.00;1.00;;;;;;;;;;5053304;28;20048;-87
2023/05/08 14:27:04;;;;;;;1.23;1.23;;;;;;;;;;5057615;28;20569;-86
2023/05/08 14:29:33;;;;;;;1.00;1.00;;;;;;;;;;5050524;28;20715;-84
2023/05/08 14:32:00;;;;;;;1.17;1.17;;;;;;;;;;5059740;28;20064;-84
2023/05/08 14:34:28;;;;;;;1.13;1.10;;;;;;;;;;5066301;28;20049;-84
2023/05/08 14:36:55;;;;;;;1.77;1.23;;;;;;;;;;5062020;28;20059;-86
2023/05/08 14:39:23;;;;;;;1.20;1.20;;;;;;;;;;5068783;28;20080;-85
2023/05/08 14:41:50;;;;;;;1.10;1.10;;;;;;;;;;5069090;28;20029;-86
2023/05/08 14:44:37;;;;;;;1.30;1.30;;;;;;;;;;5073542;28;20085;-86
2023/05/08 14:47:08;;;;;;;1.70;1.60;;;;;;;;;;5037942;28;20045;-85
2023/05/08 14:49:35;;;;;;;1.92;1.83;;;;;;;;;;5072897;28;20029;-85
2023/05/08 14:52:08;;;;;;;1.77;1.67;;;;;;;;;;5071144;28;20057;-85
2023/05/08 14:54:35;;;;;;;1.73;1.73;;;;;;;;;;5070663;28;20049;-82
2023/05/08 14:57:03;;;;;;;1.63;1.55;;;;;;;;;;5061835;28;20037;-83
2023/05/08 14:59:30;;;;;;;2.13;2.03;;;;;;;;;;5034787;28;20049;-84
2023/05/08 15:01:57;;;;;;;2.50;2.40;;;;;;;;;;5051658;28;20053;-84
2023/05/08 15:04:25;;;;;;;2.47;2.38;;;;;;;;;;5046272;28;20052;-85